createdAt,value
2023-03-20T00:03:32.597Z,11.42
2023-03-20T00:07:34.746Z,11.48
2023-03-20T00:11:44.058Z,11.57
2023-03-20T00:15:46.505Z,11.47
2023-03-20T00:19:49.171Z,11.25
2023-03-20T00:23:51.258Z,11.11
2023-03-20T00:27:53.477Z,11.10
2023-03-20T00:31:56.109Z,11.15
2023-03-20T00:35:59.378Z,11.18
2023-03-20T00:40:01.536Z,11.16
2023-03-20T00:44:26.424Z,11.16
2023-03-20T00:48:28.621Z,11.08
2023-03-20T00:52:31.379Z,11.19
2023-03-20T00:56:36.648Z,11.25
2023-03-20T01:00:38.795Z,11.26
2023-03-20T01:04:43.770Z,11.24
2023-03-20T01:08:48.896Z,11.19
2023-03-20T01:12:51.027Z,11.26
2023-03-20T01:16:53.237Z,11.13
2023-03-20T01:20:55.454Z,11.06
2023-03-20T01:24:57.637Z,11.01
2023-03-20T01:28:59.795Z,10.91
2023-03-20T01:33:12.249Z,10.90
2023-03-20T01:37:18.951Z,10.93
2023-03-20T01:41:23.338Z,10.98
2023-03-20T01:45:36.332Z,10.92
2023-03-20T01:50:00.967Z,10.93
2023-03-20T01:54:09.037Z,10.86
2023-03-20T01:58:26.107Z,10.92
2023-03-20T02:02:33.886Z,10.99
2023-03-20T02:06:44.338Z,11.03
2023-03-20T02:11:01.796Z,11.01
2023-03-20T02:15:08.093Z,11.05
2023-03-20T02:19:40.974Z,11.16
2023-03-20T02:23:58.499Z,11.24
2023-03-20T02:28:32.339Z,11.33
2023-03-20T02:33:12.455Z,11.45
2023-03-20T02:37:44.619Z,11.49
2023-03-20T02:42:13.047Z,11.50
2023-03-20T02:46:18.324Z,11.54
2023-03-20T02:50:31.979Z,11.57
2023-03-20T02:54:53.542Z,11.60
2023-03-20T02:58:55.718Z,11.61
2023-03-20T03:03:13.244Z,11.59
2023-03-20T03:07:19.783Z,11.56
2023-03-20T03:11:21.926Z,11.60
2023-03-20T03:15:39.184Z,11.61
2023-03-20T03:19:46.693Z,11.40
2023-03-20T03:23:49.902Z,11.36
2023-03-20T03:28:11.751Z,11.26
2023-03-20T03:33:17.350Z,11.21
2023-03-20T03:37:43.258Z,11.13
2023-03-20T03:42:23.024Z,11.10
2023-03-20T03:46:52.687Z,11.31
2023-03-20T03:51:00.588Z,11.28
2023-03-20T03:55:08.943Z,11.15
2023-03-20T03:59:33.639Z,10.97
2023-03-20T04:03:40.333Z,11.09
2023-03-20T04:07:46.384Z,10.99
2023-03-20T04:11:52.204Z,10.74
2023-03-20T04:15:54.958Z,10.73
2023-03-20T04:19:57.995Z,10.74
2023-03-20T04:24:00.598Z,10.91
2023-03-20T04:28:02.755Z,11.07
2023-03-20T04:32:14.657Z,11.07
2023-03-20T04:36:49.189Z,10.95
2023-03-20T04:40:53.071Z,11.01
2023-03-20T04:44:55.764Z,11.08
2023-03-20T04:48:59.563Z,11.18
2023-03-20T04:53:05.084Z,11.19
2023-03-20T04:57:07.360Z,11.16
2023-03-20T05:01:10.755Z,11.07
2023-03-20T05:05:13.089Z,10.93
2023-03-20T05:09:16.940Z,10.91
2023-03-20T05:13:19.357Z,11.10
2023-03-20T05:17:51.873Z,11.12
2023-03-20T05:22:12.550Z,11.10
2023-03-20T05:26:33.340Z,10.98
2023-03-20T05:30:58.406Z,10.96
2023-03-20T05:35:23.154Z,11.05
2023-03-20T05:39:34.037Z,11.02
2023-03-20T05:43:39.185Z,11.00
2023-03-20T05:48:07.334Z,10.89
2023-03-20T05:52:23.988Z,10.84
2023-03-20T05:56:41.477Z,10.75
2023-03-20T06:00:49.674Z,10.87
2023-03-20T06:05:11.779Z,10.93
2023-03-20T06:09:20.878Z,11.03
2023-03-20T06:13:23.849Z,11.08
2023-03-20T06:17:26.148Z,11.09
2023-03-20T06:21:35.163Z,11.08
2023-03-20T06:25:38.864Z,11.00
2023-03-20T06:29:42.434Z,11.02
2023-03-20T06:34:00.177Z,11.07
2023-03-20T06:38:02.797Z,10.96
2023-03-20T06:42:05.600Z,11.01
2023-03-20T06:46:08.154Z,11.10
2023-03-20T06:50:11.766Z,11.16
2023-03-20T06:54:14.406Z,11.25
2023-03-20T06:58:17.970Z,11.36
2023-03-20T07:02:24.431Z,11.51
2023-03-20T07:06:27.694Z,11.37
2023-03-20T07:10:30.104Z,11.26
2023-03-20T07:14:32.401Z,11.35
2023-03-20T07:18:40.552Z,11.41
2023-03-20T07:22:43.299Z,11.68
2023-03-20T07:26:53.868Z,11.94
2023-03-20T07:30:57.897Z,12.06
2023-03-20T07:35:01.770Z,12.25
2023-03-20T07:39:04.664Z,12.36
2023-03-20T07:43:08.081Z,12.37
2023-03-20T07:47:43.097Z,12.41
2023-03-20T07:51:46.441Z,12.46
2023-03-20T07:55:48.752Z,12.54
2023-03-20T07:59:50.982Z,12.59
2023-03-20T08:03:53.102Z,12.53
2023-03-20T08:07:55.687Z,12.43
2023-03-20T08:11:58.183Z,12.34
2023-03-20T08:16:00.619Z,12.45
2023-03-20T08:20:04.567Z,12.45
2023-03-20T08:24:07.123Z,12.30
2023-03-20T08:28:09.319Z,12.52
2023-03-20T08:32:11.434Z,12.74
2023-03-20T08:36:15.677Z,12.88
2023-03-20T08:40:17.809Z,12.88
2023-03-20T08:44:19.915Z,12.85
2023-03-20T08:48:22.091Z,12.97
2023-03-20T08:52:24.223Z,12.98
2023-03-20T08:56:26.653Z,13.23
2023-03-20T09:00:28.897Z,13.44
2023-03-20T09:04:31.441Z,13.57
2023-03-20T09:08:33.636Z,13.56
2023-03-20T09:12:36.164Z,13.50
2023-03-20T09:16:38.470Z,13.69
2023-03-20T09:20:40.590Z,13.89
2023-03-20T09:24:42.724Z,13.78
2023-03-20T09:28:44.838Z,13.81
2023-03-20T09:32:47.092Z,13.50
2023-03-20T09:36:49.934Z,13.76
2023-03-20T09:41:22.629Z,13.68
2023-03-20T09:45:47.831Z,13.33
2023-03-20T09:50:11.970Z,13.50
2023-03-20T09:54:28.453Z,13.60
2023-03-20T09:58:34.367Z,13.65
2023-03-20T10:02:49.354Z,13.49
2023-03-20T10:06:51.625Z,13.61
2023-03-20T10:11:32.222Z,13.68
2023-03-20T10:16:04.488Z,13.63
2023-03-20T10:20:25.856Z,13.93
2023-03-20T10:25:03.601Z,14.01
2023-03-20T10:29:26.480Z,14.20
2023-03-20T10:34:09.560Z,14.41
2023-03-20T10:38:33.395Z,14.31
2023-03-20T10:42:51.602Z,14.20
2023-03-20T10:47:01.062Z,14.13
2023-03-20T10:51:15.188Z,14.07
2023-03-20T10:55:25.402Z,13.97
2023-03-20T10:59:52.381Z,13.93
2023-03-20T11:04:00.279Z,13.91
2023-03-20T11:08:14.183Z,14.02
2023-03-20T11:12:23.629Z,14.25
2023-03-20T11:16:37.326Z,14.11
2023-03-20T11:20:56.798Z,14.36
2023-03-20T11:25:03.189Z,14.58
2023-03-20T11:29:10.674Z,14.60
2023-03-20T11:33:16.954Z,14.60
2023-03-20T11:37:29.880Z,14.65
2023-03-20T11:41:33.568Z,14.65
2023-03-20T11:45:39.042Z,14.60
2023-03-20T11:49:56.009Z,14.71
2023-03-20T11:54:05.338Z,14.24
2023-03-20T11:58:17.563Z,14.39
2023-03-20T12:02:24.556Z,14.26
2023-03-20T12:06:36.560Z,13.89
2023-03-20T12:10:43.081Z,13.81
2023-03-20T12:14:55.006Z,14.21
2023-03-20T12:19:04.742Z,14.46
2023-03-20T12:23:10.772Z,14.08
2023-03-20T12:27:21.710Z,14.41
2023-03-20T12:31:40.876Z,14.32
2023-03-20T12:35:49.621Z,14.42
2023-03-20T12:39:59.458Z,14.59
2023-03-20T12:44:11.685Z,14.61
2023-03-20T12:48:46.738Z,14.52
2023-03-20T12:53:07.544Z,14.78
2023-03-20T12:57:28.452Z,14.86
2023-03-20T13:01:36.763Z,14.63
2023-03-20T13:06:09.639Z,15.43
2023-03-20T13:10:22.243Z,16.09
2023-03-20T13:14:31.226Z,16.33
2023-03-20T13:18:50.227Z,16.58
2023-03-20T13:23:27.923Z,16.93
2023-03-20T13:27:54.601Z,17.08
2023-03-20T13:32:28.478Z,16.87
2023-03-20T13:36:52.785Z,16.56
2023-03-20T13:41:06.731Z,16.15
2023-03-20T13:50:38.619Z,16.25
2023-03-20T13:55:18.749Z,16.69
2023-03-20T13:59:29.176Z,16.83
2023-03-20T14:03:36.566Z,16.68
2023-03-20T14:07:44.603Z,16.89
2023-03-20T14:11:46.886Z,16.55
2023-03-20T14:15:57.416Z,16.89
2023-03-20T14:20:12.710Z,16.76
2023-03-20T14:24:19.678Z,16.63
2023-03-20T14:28:22.156Z,16.66
2023-03-20T14:32:33.690Z,16.75
2023-03-20T14:36:59.844Z,16.69
2023-03-20T14:41:23.211Z,16.26
2023-03-20T14:45:47.498Z,15.75
2023-03-20T14:50:11.734Z,15.74
2023-03-20T14:54:22.980Z,15.72
2023-03-20T14:58:51.029Z,15.61
2023-03-20T15:03:07.935Z,15.43
2023-03-20T15:07:25.971Z,15.18
2023-03-20T15:11:29.061Z,15.19
2023-03-20T15:15:34.822Z,15.12
2023-03-20T15:19:40.138Z,14.97
2023-03-20T15:23:46.914Z,14.95
2023-03-20T15:27:50.410Z,15.14
2023-03-20T15:32:13.015Z,15.20
2023-03-20T15:36:24.887Z,15.20
2023-03-20T15:40:40.177Z,15.05
2023-03-20T15:44:52.339Z,14.97
2023-03-20T15:48:56.362Z,14.98
2023-03-20T15:52:58.770Z,14.96
2023-03-20T15:57:03.028Z,14.89
2023-03-20T16:01:08.175Z,14.95
2023-03-20T16:05:15.037Z,14.91
2023-03-20T16:09:18.090Z,14.94
2023-03-20T16:13:23.597Z,14.81
2023-03-20T16:17:26.808Z,14.81
2023-03-20T16:21:33.558Z,14.72
2023-03-20T16:25:37.474Z,14.50
2023-03-20T16:29:44.133Z,14.44
2023-03-20T16:33:47.262Z,14.35
2023-03-20T16:37:54.752Z,14.26
2023-03-20T16:42:04.590Z,14.12
2023-03-20T16:46:07.321Z,14.09
2023-03-20T16:50:21.154Z,13.82
2023-03-20T16:54:32.626Z,13.62
2023-03-20T16:58:41.488Z,13.56
2023-03-20T17:02:51.222Z,13.51
2023-03-20T17:06:55.996Z,13.28
2023-03-20T17:11:00.608Z,13.14
2023-03-20T17:15:05.000Z,13.01
2023-03-20T17:19:19.100Z,12.97
2023-03-20T17:23:22.965Z,12.89
2023-03-20T17:27:28.231Z,12.81
2023-03-20T17:31:30.593Z,12.70
2023-03-20T17:35:33.885Z,12.53
2023-03-20T17:39:36.228Z,12.38
2023-03-20T17:43:38.582Z,12.28
2023-03-20T17:47:42.698Z,12.13
2023-03-20T17:51:44.940Z,11.86
2023-03-20T17:55:47.532Z,11.83
2023-03-20T17:59:50.362Z,11.81
2023-03-20T18:03:52.781Z,11.86
2023-03-20T18:07:54.886Z,11.80
2023-03-20T18:11:57.357Z,11.74
2023-03-20T18:15:59.857Z,11.61
2023-03-20T18:20:02.406Z,11.55
2023-03-20T18:24:05.294Z,11.63
2023-03-20T18:28:15.539Z,11.61
2023-03-20T18:32:17.701Z,11.58
2023-03-20T18:36:26.481Z,11.62
2023-03-20T18:40:35.616Z,11.56
2023-03-20T18:44:37.951Z,11.63
2023-03-20T18:48:40.205Z,11.65
2023-03-20T18:52:42.443Z,11.62
2023-03-20T18:56:45.681Z,11.68
2023-03-20T19:00:47.910Z,11.74
2023-03-20T19:04:49.992Z,11.68
2023-03-20T19:08:52.859Z,11.71
2023-03-20T19:12:56.082Z,11.66
2023-03-20T19:16:58.331Z,11.64
2023-03-20T19:21:00.753Z,11.66
2023-03-20T19:25:04.530Z,11.70
2023-03-20T19:29:09.698Z,11.64
2023-03-20T19:33:11.976Z,11.69
2023-03-20T19:37:14.258Z,11.66
2023-03-20T19:41:16.608Z,11.60
2023-03-20T19:45:19.137Z,11.52
2023-03-20T19:49:30.220Z,11.43
2023-03-20T19:53:33.508Z,11.21
2023-03-20T19:57:35.922Z,10.94
2023-03-20T20:01:40.167Z,10.76
2023-03-20T20:05:42.924Z,10.66
2023-03-20T20:09:45.360Z,10.62
2023-03-20T20:18:10.613Z,10.11
2023-03-20T20:22:25.026Z,10.08
2023-03-20T20:26:31.050Z,9.98
2023-03-20T20:30:38.257Z,9.96
2023-03-20T20:39:04.183Z,9.86
2023-03-20T20:43:10.491Z,9.88
2023-03-20T20:47:14.114Z,9.83
2023-03-20T20:51:16.849Z,9.79
2023-03-20T20:55:23.517Z,9.96
2023-03-20T20:59:26.618Z,10.18
2023-03-20T21:03:29.479Z,10.33
2023-03-20T21:07:31.669Z,10.39
2023-03-20T21:11:34.127Z,10.44
2023-03-20T21:15:37.056Z,10.40
2023-03-20T21:19:41.526Z,10.41
2023-03-20T21:23:44.070Z,10.34
2023-03-20T21:27:46.538Z,9.87
2023-03-20T21:31:49.344Z,9.80
2023-03-20T21:35:53.414Z,9.92
2023-03-20T21:39:56.974Z,10.03
2023-03-20T21:44:01.248Z,9.85
2023-03-20T21:48:42.429Z,9.52
2023-03-20T21:57:28.924Z,9.67
2023-03-20T22:01:52.421Z,9.61
2023-03-20T22:28:32.399Z,9.38
2023-03-20T22:37:11.137Z,9.18
2023-03-20T22:45:04.332Z,8.52
2023-03-20T22:49:07.485Z,8.42
2023-03-20T22:53:09.738Z,8.32
2023-03-20T22:57:11.915Z,8.26
2023-03-20T23:01:14.097Z,8.18
2023-03-20T23:05:39.322Z,8.22
2023-03-20T23:10:01.188Z,8.36
2023-03-20T23:14:03.805Z,8.37
2023-03-20T23:18:08.198Z,8.32
2023-03-20T23:22:10.494Z,8.41
2023-03-20T23:32:26.351Z,8.08
2023-03-20T23:36:36.371Z,7.98
2023-03-20T23:40:38.965Z,7.95
2023-03-20T23:44:50.039Z,8.00
2023-03-20T23:48:57.699Z,7.94
2023-03-20T23:53:13.096Z,7.76
2023-03-20T23:57:15.847Z,7.75
